Terminal Aerodrome Forecast
Issued by NWS

Home | Current Version | Previous Version | Text Only | Print | Product List | Glossary On
Versions: 1 2 3 4 5 6 7 8 9 10 11 12 13 14 15 16 17 18 19 20 21 22 23 24 25 26 27 28 29
648
FTUS46 KMTR 232323
TAFSFO
TAF
KSFO 232323Z 2400/2506 29005KT P6SM VCSH FEW060 BKN180
     FM240400 29009KT P6SM SCT015 BKN080
     FM240900 28008KT P6SM BKN015
     FM241100 28006KT 5SM BR OVC010
     FM241700 VRB03KT P6SM FEW010 BKN150
     FM242100 31007KT P6SM FEW010 BKN150
     FM250000 31008KT P6SM BKN120=

USA.gov is the U.S. government's official web portal to all federal, state and local government web resources and services.